• Join FlightAware (Why Join?)
  • Login
  • US Flag 
03:53PM EDT


 

Airport Tracker/Info


-or-


 

Live Flight TrackerFlight Track Log ✈ AAL832 ✈ 11-Aug-2013 ✈ KLAX - KORD

Flight Track Log - Related Links

Times and Time Zones

All times are in EDT time to prevent confusion due to time zone crossing. See the AAL832 flight status page for this flight to view local times or setup timezone preferences in your user account.

Time Position Orientation Groundspeed Altitude Reporting Facility
EDT Latitude Longitude Course Direction KTS MPH feet Rate Location/Type
01:12PM 33.9336 -118.4442 59° Northeast 180 207 1,400  Level Los Angeles Center
01:13PM 33.9153 -118.5231 254° West 231 266 2,700 1,740 Climbing Los Angeles Center
01:14PM 34.1403 -118.0528 59° Northeast  Level FlightAware Approximate
01:14PM 33.8808 -118.6022 242° Southwest 270 311 5,000  Level Los Angeles Center
01:15PM 34.2092 -117.9150 59° Northeast  Level FlightAware Approximate
01:15PM 33.8211 -118.5789 162° South 291 335 6,700  Level Los Angeles Center
01:16PM 34.2866 -117.7946 54° Northeast  Level FlightAware Approximate
01:16PM 33.8458 -118.4986 70° East 302 348 9,000  Level Los Angeles Center
01:17PM 34.3611 -117.6611 59° Northeast  Level FlightAware Approximate
01:17PM 33.9217 -118.4428 31° Northeast 303 349 10,800  Level Los Angeles Center
01:18PM 33.9936 -118.3261 53° Northeast 360 414 12,600 1,920 Climbing Los Angeles Center
01:19PM 34.0536 -118.2211 55° Northeast 374 430 14,900 2,100 Climbing Los Angeles Center
01:20PM 34.1167 -118.1100 56° Northeast 394 453 17,000 1,920 Climbing Los Angeles Center
01:21PM 34.1681 -118.0183 56° Northeast 407 468 18,900 2,160 Climbing Los Angeles Center
01:22PM 34.2464 -117.8800 56° Northeast 414 476 21,500 2,280 Climbing Los Angeles Center
01:23PM 34.3286 -117.7375 55° Northeast 430 495 23,700 1,740 Climbing Los Angeles Center
01:24PM 34.3992 -117.6403 49° Northeast 444 511 25,200 1,500 Climbing Los Angeles Center
01:25PM 34.4975 -117.5000 50° Northeast 456 525 26,800 1,320 Climbing Los Angeles Center
01:26PM 34.5811 -117.3772 50° Northeast 471 542 28,000 1,080 Climbing Los Angeles Center
01:27PM 34.6683 -117.2519 50° Northeast 485 558 29,100 1,200 Climbing Los Angeles Center
01:28PM 34.7564 -117.1242 50° Northeast 494 568 30,500 1,200 Climbing Los Angeles Center
01:29PM 34.8464 -116.9947 50° Northeast 503 579 31,600 1,200 Climbing Los Angeles Center
01:30PM 34.9547 -116.8358 50° Northeast 510 587 33,000 1,200 Climbing Los Angeles Center
01:31PM 35.0464 -116.7019 50° Northeast 516 594 34,100 960 Climbing Los Angeles Center
01:32PM 35.1369 -116.5681 50° Northeast 515 593 35,000 780 Climbing Los Angeles Center
01:34PM 35.2283 -116.4336 50° Northeast 516 594 35,900 780 Climbing Los Angeles Center
01:35PM 35.3406 -116.2706 50° Northeast 523 602 36,900 480 Climbing Los Angeles Center
01:36PM 35.4492 -116.1058 51° Northeast 521 600 37,000  Climbing Los Angeles Center
01:37PM 35.5631 -115.9400 50° Northeast 530 610 37,000  Level Los Angeles Center
01:38PM 35.6636 -115.7883 51° Northeast 532 612 37,000  Level Los Angeles Center
01:39PM 35.7572 -115.6469 51° Northeast 534 615 37,000  Level Los Angeles Center
01:40PM 35.8497 -115.5089 50° Northeast 529 609 37,000  Level Los Angeles Center
01:41PM 35.9428 -115.3658 51° Northeast 537 618 37,000  Level Los Angeles Center
01:42PM 36.0489 -115.2011 51° Northeast 521 600 37,000  Level Los Angeles Center
01:43PM 36.1200 -115.0447 61° Northeast 528 608 37,000  Level Los Angeles Center
01:44PM 36.1900 -114.8864 61° Northeast 526 605 37,000  Level Los Angeles Center
01:45PM 36.2578 -114.7253 62° Northeast 530 610 37,000  Level Los Angeles Center
01:47PM 36.3278 -114.5642 62° Northeast 533 613 37,000  Level Los Angeles Center
01:48PM 36.3967 -114.4025 62° Northeast 532 612 37,000  Level Los Angeles Center
01:49PM 36.4939 -114.1769 62° Northeast 531 611 37,000  Level Los Angeles Center
01:50PM 36.5592 -114.0244 62° Northeast 535 616 37,000  Level Los Angeles Center
01:51PM 36.6269 -113.8644 62° Northeast 525 604 37,000  Level Los Angeles Center
01:52PM 36.7089 -113.6681 62° Northeast 534 615 37,000  Level Los Angeles Center
01:53PM 36.7772 -113.5069 62° Northeast 527 606 37,000  Level Los Angeles Center
01:54PM 36.8444 -113.3447 63° Northeast 524 603 37,000  Level Los Angeles Center
01:55PM 36.9253 -113.1506 62° Northeast 527 606 37,000  Level Los Angeles Center
01:56PM 36.9922 -112.9900 62° Northeast 526 605 37,000  Level Los Angeles Center
01:57PM 37.0703 -112.7958 63° Northeast 526 605 37,000  Level Los Angeles Center
01:58PM 37.1361 -112.6356 63° Northeast 524 603 37,000  Level Los Angeles Center
01:59PM 37.2022 -112.4750 63° Northeast 524 603 37,000  Level Los Angeles Center
02:00PM 37.2667 -112.3142 63° Northeast 523 602 37,000  Level Los Angeles Center
02:01PM 37.3322 -112.1519 63° Northeast 525 604 37,000  Level Los Angeles Center
02:02PM 37.4092 -111.9575 63° Northeast 523 602 37,000  Level Los Angeles Center
02:03PM 37.4761 -111.7958 62° Northeast 524 603 37,000  Level Los Angeles Center
02:04PM 37.5386 -111.6361 64° Northeast 516 594 37,000  Level Los Angeles Center
02:06PM 37.6114 -111.4425 65° Northeast 515 593 37,000  Level Salt Lake Center
02:07PM 37.6747 -111.2817 64° Northeast 514 592 37,000  Level Salt Lake Center
02:08PM 37.7378 -111.1200 64° Northeast 514 592 37,000  Level Salt Lake Center
02:09PM 37.7994 -110.9567 64° Northeast 516 594 37,000  Level Salt Lake Center
02:10PM 37.8753 -110.7628 64° Northeast 515 593 37,000  Level Salt Lake Center
02:11PM 37.9394 -110.5917 65° Northeast 515 593 37,000  Level Salt Lake Center
02:12PM 37.9997 -110.4342 64° Northeast 518 596 37,000  Level Salt Lake Center
02:13PM 38.0708 -110.2517 64° Northeast 517 595 37,000  Level Salt Lake Center
02:14PM 38.1294 -110.0931 65° Northeast 518 596 37,000  Level Salt Lake Center
02:15PM 38.1978 -109.9092 65° Northeast 518 596 37,000  Level Salt Lake Center
02:16PM 38.2392 -109.7425 72° East 516 594 37,000  Level Salt Lake Center
02:17PM 38.2828 -109.5769 71° East 516 594 37,000  Level Salt Lake Center
02:18PM 38.3347 -109.3850 71° East 515 593 37,000  Level Salt Lake Center
02:19PM 38.3772 -109.2208 72° East 513 590 37,000  Level Salt Lake Center
02:20PM 38.4278 -109.0281 71° East 513 590 37,000  Level Salt Lake Center
02:21PM 38.4858 -108.8097 71° East 507 583 37,000  Level Denver Center
02:22PM 38.5436 -108.6203 69° East 514 592 37,000  Level Denver Center
02:23PM 38.6025 -108.4675 64° Northeast 505 581 37,000  Level Denver Center
02:24PM 38.6692 -108.2839 65° Northeast 509 586 37,000  Level Denver Center
02:25PM 38.7261 -108.1239 65° Northeast 513 590 37,000  Level Denver Center
02:26PM 38.7914 -107.9397 65° Northeast 510 587 37,000  Level Denver Center
02:28PM 38.8483 -107.7808 65° Northeast 513 590 37,000  Level Denver Center
02:29PM 38.9150 -107.5967 65° Northeast 511 588 37,000  Level Denver Center
02:30PM 38.9714 -107.4372 65° Northeast 513 590 37,000  Level Denver Center
02:31PM 39.0444 -107.2264 66° East 509 586 37,000  Level Denver Center
02:32PM 39.1006 -107.0658 66° East 512 589 37,000  Level Denver Center
02:33PM 39.1650 -106.8792 66° East 511 588 37,000 120 Level Denver Center
02:34PM 39.2197 -106.7186 66° East 514 592 37,300 540 Climbing Denver Center
02:35PM 39.2850 -106.5297 66° East 515 593 38,200 720 Climbing Denver Center
02:36PM 39.3397 -106.3681 66° East 513 590 38,800 360 Climbing Denver Center
02:37PM 39.4044 -106.1781 66° East 518 596 39,000 60 Climbing Denver Center
02:38PM 39.4642 -105.9983 67° East 521 600 39,000  Level Denver Center
02:39PM 39.5219 -105.8281 66° East 518 596 39,000  Level Denver Center
02:40PM 39.5806 -105.6544 66° East 520 598 39,000  Level Denver Center
02:41PM 39.6369 -105.4822 67° East 515 593 39,000  Level Denver Center
02:42PM 39.6925 -105.3094 67° East 521 600 39,000  Level Denver Center
02:43PM 39.7469 -105.1392 67° East 510 587 39,000  Level Denver Center
02:44PM 39.8028 -104.9667 67° East 510 587 39,000  Level Denver Center
02:45PM 39.8708 -104.7597 67° East 510 587 39,000  Level Denver Center
02:46PM 39.9267 -104.5814 68° East 522 601 39,000  Level Denver Center
02:47PM 39.9797 -104.4089 68° East 503 579 39,000  Level Denver Center
02:48PM 40.0342 -104.2331 68° East 517 595 39,000  Level Denver Center
02:49PM 40.0881 -104.0592 68° East 521 600 39,000  Level Denver Center
02:50PM 40.1414 -103.8861 68° East 511 588 39,000  Level Denver Center
02:52PM 40.1844 -103.7478 68° East 528 608 39,000  Level Denver Center
02:53PM 40.2603 -103.5067 68° East 517 595 39,000  Level Denver Center
02:54PM 40.3131 -103.3308 68° East 519 597 39,000  Level Denver Center
02:55PM 40.3661 -103.1553 68° East 519 597 39,000  Level Denver Center
02:56PM 40.4192 -102.9797 68° East 519 597 39,000  Level Denver Center
02:57PM 40.4703 -102.8044 69° East 515 593 39,000  Level Denver Center
02:58PM 40.5256 -102.6194 68° East 517 595 39,000  Level Denver Center
02:59PM 40.5833 -102.4244 69° East 513 590 39,000  Level Denver Center
03:00PM 40.6322 -102.2561 69° East 513 590 39,000  Level Denver Center
03:01PM 40.6911 -102.0600 68° East 515 593 39,000  Level Denver Center
03:02PM 40.7325 -101.9194 69° East 516 594 39,000  Level Denver Center
03:03PM 40.7967 -101.6922 69° East 517 595 39,000  Level Denver Center
03:04PM 40.8378 -101.5492 69° East 520 598 39,000  Level Denver Center
03:05PM 40.9019 -101.3214 69° East 519 597 39,000  Level Denver Center
03:06PM 40.9500 -101.1489 70° East 519 597 39,000  Level Denver Center
03:07PM 40.9992 -100.9775 69° East 517 595 39,000  Level Denver Center
03:08PM 41.0561 -100.7725 70° East 521 600 39,000  Level Denver Center
03:09PM 41.1039 -100.5969 70° East 522 601 39,000  Level Denver Center
03:10PM 41.1578 -100.3958 70° East 517 595 39,000  Level Denver Center
03:11PM 41.2050 -100.2233 70° East 518 596 39,000  Level Denver Center
03:12PM 41.2506 -100.0503 71° East 518 596 39,000  Level Denver Center
03:13PM 41.3042 -99.8475 71° East 520 598 39,000  Level Denver Center
03:14PM 41.3531 -99.6658 70° East 519 597 39,000  Level Denver Center
03:15PM 41.4011 -99.4836 71° East 519 597 39,000  Level Denver Center
03:16PM 41.4483 -99.2997 71° East 520 598 39,000  Level Denver Center
03:17PM 41.4961 -99.1153 71° East 521 600 39,000  Level Denver Center
03:18PM 41.5339 -98.9669 71° East 521 600 39,000  Level Denver Center
03:19PM 41.5800 -98.7831 71° East 522 601 39,000  Level Minneapolis Center
03:20PM 41.6358 -98.5619 71° East 519 597 39,000  Level Minneapolis Center
03:21PM 41.6819 -98.3764 72° East 521 600 39,000  Level Minneapolis Center
03:22PM 41.7261 -98.1917 72° East 521 600 39,000  Level Minneapolis Center
03:23PM 41.7728 -98.0089 71° East 520 598 39,000  Level Minneapolis Center
03:24PM 41.8175 -97.8256 72° East 518 596 39,000  Level Minneapolis Center
03:25PM 41.8628 -97.6406 72° East 519 597 39,000  Level Minneapolis Center
03:26PM 41.9056 -97.4547 73° East 521 600 39,000  Level Minneapolis Center
03:28PM 41.9506 -97.2672 72° East 523 602 39,000  Level Minneapolis Center
03:29PM 42.0044 -97.0431 72° East 524 603 39,000  Level Minneapolis Center
03:30PM 42.0567 -96.8186 73° East 524 603 39,000  Level Minneapolis Center
03:31PM 42.1003 -96.6311 73° East 523 602 39,000  Level Minneapolis Center
03:32PM 42.1442 -96.4403 73° East 527 606 39,000  Level Minneapolis Center
03:33PM 42.1869 -96.2544 73° East 521 600 39,000  Level Minneapolis Center
03:34PM 42.2286 -96.0678 73° East 518 596 39,000  Level Minneapolis Center
03:35PM 42.2697 -95.8800 73° East 519 597 39,000  Level Minneapolis Center
03:36PM 42.3200 -95.6578 73° East 516 594 39,000  Level Minneapolis Center
03:37PM 42.3597 -95.4711 74° East 516 594 39,000  Level Minneapolis Center
03:38PM 42.4006 -95.2844 73° East 516 594 39,000  Level Minneapolis Center
03:39PM 42.4414 -95.1006 73° East 512 589 39,000  Level Minneapolis Center
03:40PM 42.4803 -94.9153 74° East 511 588 39,000  Level Minneapolis Center
03:41PM 42.5200 -94.7306 74° East 510 587 39,000  Level Minneapolis Center
03:42PM 42.5533 -94.5642 75° East 512 589 39,000  Level Minneapolis Center
03:43PM 42.5989 -94.3417 74° East 513 590 39,000  Level Minneapolis Center
03:44PM 42.6061 -94.1519 87° East 508 585 39,000  Level Minneapolis Center
03:45PM 42.5989 -93.9583 93° East 515 593 39,000  Level Minneapolis Center
03:46PM 42.5917 -93.7292 92° East 514 592 39,000  Level Minneapolis Center
03:47PM 42.5853 -93.5353 92° East 516 594 39,000  Level Minneapolis Center
03:48PM 42.5792 -93.3425 92° East 517 595 39,000  Level Minneapolis Center
03:49PM 42.5717 -93.1500 93° East 517 595 39,000  Level Minneapolis Center
03:50PM 42.5636 -92.9575 93° East 517 595 39,000  Level Minneapolis Center
03:52PM 42.5517 -92.6858 93° East 519 597 39,000 -60 Level Chicago Center
03:53PM 42.5436 -92.4936 93° East 516 594 38,900 -540 Descending Chicago Center
03:54PM 42.5353 -92.3019 93° East 517 595 37,900 -1,020 Descending Chicago Center
03:55PM 42.5236 -92.0708 94° East 520 598 36,800 -1,020 Descending Chicago Center
03:56PM 42.5242 -91.8764 90° East 524 603 35,800 -960 Descending Chicago Center
03:57PM 42.5253 -91.6817 89° East 528 608 34,900 -1,020 Descending Chicago Center
03:58PM 42.5258 -91.4464 90° East 534 615 33,800 -1,020 Descending Chicago Center
03:59PM 42.5261 -91.2514 90° East 530 610 32,800 -960 Descending Chicago Center
04:00PM 42.5258 -91.0544 90° East 533 613 31,900 -960 Descending Chicago Center
04:01PM 42.5253 -90.8558 90° East 534 615 30,900 -1,020 Descending Chicago Center
04:02PM 42.5244 -90.6617 90° East 524 603 29,900 -1,080 Descending Chicago Center
04:03PM 42.5225 -90.4314 91° East 516 594 28,700 -1,020 Descending Chicago Center
04:04PM 42.5111 -90.2383 95° East 518 596 27,800 -960 Descending Chicago Center
04:05PM 42.4975 -90.0481 95° East 515 593 26,800 -1,020 Descending Chicago Center
04:06PM 42.4811 -89.8447 96° East 522 601 25,800 -1,020 Descending Chicago Center
04:07PM 42.4642 -89.6161 96° East 525 604 24,700 -1,020 Descending Chicago Center
04:08PM 42.4494 -89.4225 96° East 518 596 23,700 -1,800 Descending Chicago Center
04:09PM 42.4344 -89.2358 96° East 504 580 21,100 -2,580 Descending Chicago Center
04:10PM 42.4203 -89.0578 96° East 482 555 18,400 -2,640 Descending Chicago Center
04:11PM 42.4078 -88.8875 96° East 460 529 15,700 -2,820 Descending Chicago Center
04:12PM 42.3911 -88.6975 97° East 436 502 12,600 -2,700 Descending Chicago Center
04:13PM 42.3786 -88.5411 96° East 423 487 10,200 -1,260 Descending Chicago Center
04:14PM 42.3481 -88.4083 107° East 373 429 10,000 -120 Descending Chicago Center
04:16PM 42.2911 -88.3047 127° Southeast 360 414 10,000  Level Chicago Center
04:17PM 42.2222 -88.2106 135° Southeast 356 410 10,000 -60 Level Chicago Center
04:18PM 42.1328 -88.1039 138° Southeast 358 412 9,900  Descending Chicago Center
04:18PM 42.0833 -88.0500 141° Southeast 326 375 10,000 -660 Climbing Chicago TRACON
04:19PM 42.0167 -87.9667 137° Southeast 310 357 8,800 -1,200 Descending Chicago TRACON
04:20PM 41.9500 -87.8833 137° Southeast 349 402 7,700 -900 Descending Chicago TRACON
04:21PM 41.9000 -87.8167 135° Southeast 257 296 7,000 -900 Descending Chicago TRACON
04:22PM 41.9000 -87.7333 90° East 218 251 6,000 -1,200 Descending Chicago TRACON
04:23PM 41.9206 -87.6961 53° Northeast 214 246 5,200 -1,920 Descending Chicago Center
04:24PM 41.9586 -87.7281 328° Northwest 188 216 3,100 -1,620 Descending Chicago Center
04:25PM 41.9697 -87.7911 283° West 181 208 1,900 -1,020 Descending Chicago Center
04:26PM 41.9692 -87.8494 269° West 169 194 1,100 -780 Descending Chicago Center